Aviation Digital Data Service (ADDS)

Output produced by METARs form (1114 UTC 19 January 2019)
found at http://www.aviationweather.gov/metar/data/
 
MNMG 191100Z 15004KT 9999 FEW025 20/20 Q1012 A2989 NOSIG
MNMG 191000Z 1912/2012 10004KT 9999 FEW025 
     TEMPO 1913/1917 08016G18KT FEW018 
     BECMG 1920/1923 08018G25KT 9999 SCT020